createdAt,value
2018-09-12T00:01:20.151Z,17.70
2018-09-12T00:03:47.304Z,17.40
2018-09-12T00:06:14.520Z,17.40
2018-09-12T00:08:48.411Z,17.30
2018-09-12T00:11:15.584Z,17.20
2018-09-12T00:13:42.744Z,17.10
2018-09-12T00:16:09.923Z,17.10
2018-09-12T00:18:37.101Z,17.20
2018-09-12T00:21:04.610Z,17.10
2018-09-12T00:23:31.710Z,17.10
2018-09-12T00:25:58.873Z,17.00
2018-09-12T00:28:26.036Z,17.00
2018-09-12T00:30:53.206Z,16.90
2018-09-12T00:33:20.384Z,16.80
2018-09-12T00:35:47.556Z,16.70
2018-09-12T00:38:14.713Z,16.80
2018-09-12T00:40:41.888Z,16.80
2018-09-12T00:43:09.059Z,16.90
2018-09-12T00:45:36.231Z,17.10
2018-09-12T00:48:03.428Z,17.20
2018-09-12T00:50:30.601Z,17.20
2018-09-12T00:52:57.774Z,17.30
2018-09-12T00:55:24.965Z,17.30
2018-09-12T00:57:52.123Z,17.40
2018-09-12T01:00:19.288Z,17.40
2018-09-12T01:02:46.451Z,17.30
2018-09-12T01:05:13.603Z,17.10
2018-09-12T01:07:40.768Z,16.90
2018-09-12T01:10:07.941Z,16.90
2018-09-12T01:12:35.111Z,16.80
2018-09-12T01:15:02.329Z,16.80
2018-09-12T01:17:29.496Z,16.90
2018-09-12T01:19:56.668Z,17.00
2018-09-12T01:22:23.861Z,17.00
2018-09-12T01:24:51.007Z,17.10
2018-09-12T01:27:18.180Z,17.10
2018-09-12T01:29:45.344Z,17.10
2018-09-12T01:32:12.499Z,17.00
2018-09-12T01:34:39.724Z,17.00
2018-09-12T01:37:06.891Z,17.00
2018-09-12T01:39:34.064Z,17.10
2018-09-12T01:42:01.232Z,17.00
2018-09-12T01:44:28.384Z,17.10
2018-09-12T01:47:02.216Z,17.10
2018-09-12T01:49:29.383Z,17.10
2018-09-12T01:51:56.536Z,17.10
2018-09-12T01:54:23.732Z,17.10
2018-09-12T01:56:50.866Z,17.20
2018-09-12T01:59:18.024Z,17.20
2018-09-12T02:01:45.524Z,17.30
2018-09-12T02:04:12.720Z,17.20
2018-09-12T02:06:39.939Z,17.20
2018-09-12T02:09:08.686Z,17.20
2018-09-12T02:11:35.868Z,17.10
2018-09-12T02:14:03.072Z,17.10
2018-09-12T02:16:30.240Z,17.00
2018-09-12T02:18:58.113Z,17.00
2018-09-12T02:21:25.400Z,17.10
2018-09-12T02:23:52.534Z,17.10
2018-09-12T02:26:19.839Z,17.00
2018-09-12T02:28:46.996Z,17.00
2018-09-12T02:31:14.226Z,16.90
2018-09-12T02:33:41.404Z,16.90
2018-09-12T02:36:14.308Z,16.80
2018-09-12T02:38:41.460Z,16.70
2018-09-12T02:41:08.726Z,16.60
2018-09-12T02:43:35.931Z,16.50
2018-09-12T02:46:03.109Z,16.50
2018-09-12T02:48:30.280Z,16.50
2018-09-12T02:50:57.477Z,16.40
2018-09-12T02:53:24.639Z,16.50
2018-09-12T02:55:51.804Z,16.50
2018-09-12T02:58:18.964Z,16.40
2018-09-12T03:00:46.140Z,16.30
2018-09-12T03:03:13.321Z,16.30
2018-09-12T03:05:40.499Z,16.30
2018-09-12T03:08:07.714Z,16.40
2018-09-12T03:10:34.868Z,16.40
2018-09-12T03:13:08.933Z,16.40
2018-09-12T03:15:36.211Z,16.30
2018-09-12T03:18:03.392Z,16.30
2018-09-12T03:20:30.566Z,16.30
2018-09-12T03:22:57.723Z,16.20
2018-09-12T03:25:24.884Z,16.10
2018-09-12T03:27:52.113Z,16.10
2018-09-12T03:30:19.263Z,16.10
2018-09-12T03:32:46.429Z,16.10
2018-09-12T03:35:13.614Z,16.00
2018-09-12T03:37:40.800Z,16.00
2018-09-12T03:40:07.971Z,16.00
2018-09-12T03:42:35.140Z,15.90
2018-09-12T03:45:02.329Z,16.00
2018-09-12T03:47:29.482Z,16.00
2018-09-12T03:49:56.636Z,16.20
2018-09-12T03:52:23.808Z,16.20
2018-09-12T03:54:51.025Z,16.10
2018-09-12T03:57:18.196Z,16.00
2018-09-12T03:59:45.353Z,15.90
2018-09-12T04:02:12.560Z,15.60
2018-09-12T04:04:39.716Z,15.50
2018-09-12T04:07:06.926Z,15.20
2018-09-12T04:09:34.078Z,15.10
2018-09-12T04:12:01.242Z,15.10
2018-09-12T04:14:28.386Z,15.20
2018-09-12T04:16:55.630Z,15.30
2018-09-12T04:19:22.696Z,15.30
2018-09-12T04:21:49.884Z,15.40
2018-09-12T04:24:17.080Z,15.60
2018-09-12T04:26:44.237Z,15.50
2018-09-12T04:29:11.427Z,15.60
2018-09-12T04:31:38.583Z,15.60
2018-09-12T04:34:05.779Z,15.60
2018-09-12T04:36:32.944Z,15.70
2018-09-12T04:39:00.108Z,15.70
2018-09-12T04:41:27.292Z,15.70
2018-09-12T04:43:54.496Z,15.70
2018-09-12T04:46:21.661Z,15.70
2018-09-12T04:48:48.916Z,15.70
2018-09-12T04:51:16.100Z,15.80
2018-09-12T04:53:43.284Z,15.80
2018-09-12T04:56:10.475Z,15.80
2018-09-12T04:58:37.645Z,15.80
2018-09-12T05:01:05.165Z,15.80
2018-09-12T05:03:32.348Z,15.90
2018-09-12T05:05:59.500Z,15.90
2018-09-12T05:08:26.683Z,15.90
2018-09-12T05:10:53.827Z,16.00
2018-09-12T05:13:21.000Z,16.00
2018-09-12T05:15:48.178Z,15.90
2018-09-12T05:18:15.557Z,15.90
2018-09-12T05:20:42.724Z,15.90
2018-09-12T05:23:09.913Z,16.00
2018-09-12T05:25:37.064Z,16.00
2018-09-12T05:28:04.288Z,16.10
2018-09-12T05:30:31.457Z,16.10
2018-09-12T05:32:58.654Z,16.10
2018-09-12T05:35:25.820Z,16.10
2018-09-12T05:37:52.980Z,16.20
2018-09-12T05:40:20.156Z,16.30
2018-09-12T05:42:47.343Z,16.30
2018-09-12T05:45:14.510Z,16.30
2018-09-12T05:47:41.672Z,16.30
2018-09-12T05:50:08.905Z,16.40
2018-09-12T05:52:36.026Z,16.40
2018-09-12T05:55:03.204Z,16.40
2018-09-12T05:57:30.392Z,16.20
2018-09-12T05:59:57.560Z,16.10
2018-09-12T06:02:24.711Z,16.10
2018-09-12T06:04:52.057Z,16.20
2018-09-12T06:07:19.295Z,16.20
2018-09-12T06:09:46.388Z,16.30
2018-09-12T06:12:13.596Z,16.30
2018-09-12T06:14:40.760Z,16.40
2018-09-12T06:17:07.912Z,16.40
2018-09-12T06:19:35.085Z,16.50
2018-09-12T06:22:02.252Z,16.60
2018-09-12T06:24:29.407Z,16.70
2018-09-12T06:26:56.579Z,16.70
2018-09-12T06:29:23.744Z,16.80
2018-09-12T06:31:50.986Z,16.80
2018-09-12T06:34:18.148Z,16.70
2018-09-12T06:36:45.392Z,16.80
2018-09-12T06:39:13.054Z,16.80
2018-09-12T06:41:40.255Z,16.80
2018-09-12T06:44:07.656Z,16.90
2018-09-12T06:46:35.200Z,16.90
2018-09-12T06:49:02.396Z,17.00
2018-09-12T06:51:29.581Z,17.10
2018-09-12T06:53:56.752Z,17.20
2018-09-12T06:56:23.948Z,17.20
2018-09-12T06:58:51.109Z,17.30
2018-09-12T07:01:18.317Z,17.30
2018-09-12T07:03:45.624Z,17.40
2018-09-12T07:06:12.808Z,17.50
2018-09-12T07:08:40.104Z,17.50
2018-09-12T07:11:07.422Z,17.60
2018-09-12T07:13:34.580Z,17.60
2018-09-12T07:16:01.744Z,17.60
2018-09-12T07:18:28.908Z,17.70
2018-09-12T07:20:56.083Z,17.80
2018-09-12T07:23:23.242Z,17.90
2018-09-12T07:25:50.401Z,18.00
2018-09-12T07:28:17.590Z,18.20
2018-09-12T07:30:44.856Z,18.40
2018-09-12T07:33:12.024Z,18.50
2018-09-12T07:35:39.200Z,18.70
2018-09-12T07:38:06.383Z,18.80
2018-09-12T07:40:33.560Z,18.80
2018-09-12T07:43:00.717Z,18.90
2018-09-12T07:45:27.894Z,18.80
2018-09-12T07:47:55.184Z,18.80
2018-09-12T07:50:22.527Z,18.90
2018-09-12T07:52:49.826Z,18.90
2018-09-12T07:55:17.234Z,19.00
2018-09-12T07:57:44.408Z,19.00
2018-09-12T08:00:11.696Z,19.00
2018-09-12T08:02:38.832Z,19.10
2018-09-12T08:05:06.431Z,19.10
2018-09-12T08:07:33.552Z,19.20
2018-09-12T08:10:00.837Z,19.30
2018-09-12T08:12:28.008Z,19.40
2018-09-12T08:14:55.175Z,19.50
2018-09-12T08:17:22.432Z,19.60
2018-09-12T08:19:49.593Z,19.70
2018-09-12T08:22:16.864Z,19.80
2018-09-12T08:24:44.318Z,19.80
2018-09-12T08:27:11.474Z,19.90
2018-09-12T08:29:38.700Z,20.00
2018-09-12T08:32:05.992Z,20.00
2018-09-12T08:34:33.166Z,20.10
2018-09-12T08:37:00.365Z,20.10
2018-09-12T08:39:27.526Z,20.30
2018-09-12T08:41:54.704Z,20.30
2018-09-12T08:44:21.889Z,20.40
2018-09-12T08:46:49.076Z,20.50
2018-09-12T08:49:16.265Z,20.60
2018-09-12T08:51:43.432Z,20.70
2018-09-12T08:54:10.613Z,20.90
2018-09-12T08:56:37.779Z,21.00
2018-09-12T08:59:04.995Z,21.10
2018-09-12T09:01:32.430Z,21.20
2018-09-12T09:03:59.576Z,21.40
2018-09-12T09:06:26.672Z,21.50
2018-09-12T09:08:53.877Z,21.60
2018-09-12T09:11:21.124Z,21.70
2018-09-12T09:13:55.425Z,21.80
2018-09-12T09:16:22.591Z,21.90
2018-09-12T09:18:49.789Z,22.10
2018-09-12T09:21:17.059Z,22.20
2018-09-12T09:23:44.367Z,22.30
2018-09-12T09:26:11.408Z,22.40
2018-09-12T09:28:38.564Z,22.50
2018-09-12T09:31:05.755Z,22.60
2018-09-12T09:33:32.928Z,22.80
2018-09-12T09:36:00.099Z,23.00
2018-09-12T09:38:27.257Z,23.20
2018-09-12T09:40:54.416Z,23.40
2018-09-12T09:43:21.577Z,23.50
2018-09-12T09:45:48.722Z,23.60
2018-09-12T09:48:16.002Z,23.70
2018-09-12T09:50:43.173Z,23.90
2018-09-12T09:53:10.326Z,24.10
2018-09-12T09:55:37.497Z,24.20
2018-09-12T09:58:04.716Z,24.50
2018-09-12T10:00:37.761Z,24.70
2018-09-12T10:03:10.748Z,24.80
2018-09-12T10:05:43.615Z,25.00
2018-09-12T10:08:17.525Z,25.10
2018-09-12T10:10:44.686Z,25.20
2018-09-12T10:13:11.859Z,25.30
2018-09-12T10:15:39.026Z,25.40
2018-09-12T10:18:06.225Z,25.50
2018-09-12T10:20:33.387Z,25.60
2018-09-12T10:23:00.578Z,25.70
2018-09-12T10:25:27.775Z,25.70
2018-09-12T10:27:54.944Z,25.80
2018-09-12T10:30:22.108Z,25.90
2018-09-12T10:32:49.385Z,25.90
2018-09-12T10:35:16.569Z,26.00
2018-09-12T10:37:43.740Z,26.00
2018-09-12T10:40:10.921Z,26.10
2018-09-12T10:42:38.214Z,26.20
2018-09-12T10:45:06.352Z,26.30
2018-09-12T10:47:33.516Z,26.50
2018-09-12T10:50:00.688Z,26.50
2018-09-12T10:52:27.835Z,26.70
2018-09-12T10:54:55.007Z,26.90
2018-09-12T10:57:22.196Z,26.90
2018-09-12T10:59:49.360Z,26.90
2018-09-12T11:02:16.531Z,27.00
2018-09-12T11:04:43.674Z,27.10
2018-09-12T11:07:10.837Z,27.20
2018-09-12T11:09:37.983Z,27.40
2018-09-12T11:12:05.177Z,27.50
2018-09-12T11:14:32.324Z,27.60
2018-09-12T11:16:59.531Z,27.70
2018-09-12T11:19:26.715Z,27.70
2018-09-12T11:21:53.888Z,27.80
2018-09-12T11:24:21.035Z,27.90
2018-09-12T11:26:48.206Z,28.00
2018-09-12T11:29:15.369Z,28.10
2018-09-12T11:31:42.543Z,28.20
2018-09-12T11:34:09.738Z,28.60
2018-09-12T11:36:36.913Z,28.70
2018-09-12T11:39:07.015Z,28.80
2018-09-12T11:41:34.172Z,28.90
2018-09-12T11:44:01.336Z,29.20
2018-09-12T11:46:28.501Z,29.40
2018-09-12T11:48:55.726Z,29.60
2018-09-12T11:51:22.847Z,29.80
2018-09-12T11:53:49.989Z,30.00
2018-09-12T11:56:17.187Z,30.20
2018-09-12T11:58:44.344Z,30.40
2018-09-12T12:01:11.514Z,30.50
2018-09-12T12:03:38.672Z,30.70
2018-09-12T12:06:05.878Z,30.80
2018-09-12T12:08:33.028Z,30.90
2018-09-12T12:11:00.200Z,31.00
2018-09-12T12:13:27.348Z,31.10
2018-09-12T12:15:54.514Z,31.10
2018-09-12T12:20:55.683Z,31.20
2018-09-12T12:23:22.840Z,31.40
2018-09-12T12:25:50.008Z,31.50
2018-09-12T12:28:17.199Z,31.60
2018-09-12T12:30:44.363Z,31.60
2018-09-12T12:33:11.503Z,31.70
2018-09-12T12:35:38.680Z,31.80
2018-09-12T12:38:05.831Z,32.00
2018-09-12T12:40:32.978Z,32.00
2018-09-12T12:43:00.164Z,32.00
2018-09-12T12:45:27.325Z,32.00
2018-09-12T12:47:54.512Z,32.00
2018-09-12T12:50:21.672Z,32.00
2018-09-12T12:52:48.856Z,32.10
2018-09-12T12:55:16.024Z,32.20
2018-09-12T12:57:43.197Z,32.20
2018-09-12T13:00:10.508Z,32.40
2018-09-12T13:02:37.683Z,32.50
2018-09-12T13:05:04.850Z,32.60
2018-09-12T13:07:32.032Z,32.60
2018-09-12T13:09:59.244Z,32.60
2018-09-12T13:12:26.424Z,32.60
2018-09-12T13:14:53.579Z,32.70
2018-09-12T13:17:20.789Z,32.50
2018-09-12T13:19:47.954Z,32.70
2018-09-12T13:22:15.121Z,32.60
2018-09-12T13:24:42.289Z,32.70
2018-09-12T13:27:09.505Z,32.80
2018-09-12T13:29:36.697Z,32.80
2018-09-12T13:32:03.893Z,32.70
2018-09-12T13:34:31.115Z,32.60
2018-09-12T13:36:58.236Z,32.60
2018-09-12T13:39:25.451Z,32.60
2018-09-12T13:41:52.624Z,32.60
2018-09-12T13:44:19.811Z,32.60
2018-09-12T13:46:46.961Z,32.60
2018-09-12T13:49:14.112Z,32.60
2018-09-12T13:51:41.276Z,32.70
2018-09-12T13:54:08.429Z,32.50
2018-09-12T13:56:35.617Z,32.50
2018-09-12T13:59:02.987Z,32.50
2018-09-12T14:01:30.176Z,32.30
2018-09-12T14:03:57.323Z,32.30
2018-09-12T14:06:24.492Z,32.30
2018-09-12T14:08:51.662Z,32.30
2018-09-12T14:11:18.804Z,32.20
2018-09-12T14:13:46.249Z,32.20
2018-09-12T14:16:13.453Z,32.30
2018-09-12T14:18:40.816Z,32.40
2018-09-12T14:21:08.013Z,32.20
2018-09-12T14:23:35.173Z,32.00
2018-09-12T14:26:02.332Z,32.00
2018-09-12T14:28:29.487Z,32.10
2018-09-12T14:30:56.664Z,32.10
2018-09-12T14:33:23.843Z,32.10
2018-09-12T14:35:51.013Z,32.10
2018-09-12T14:38:18.181Z,32.10
2018-09-12T14:40:45.340Z,32.10
2018-09-12T14:43:12.505Z,32.00
2018-09-12T14:45:39.667Z,32.10
2018-09-12T14:48:06.832Z,32.10
2018-09-12T14:50:34.062Z,32.00
2018-09-12T14:53:01.327Z,32.00
2018-09-12T14:55:28.958Z,32.00
2018-09-12T14:57:56.180Z,31.90
2018-09-12T15:00:30.196Z,31.90
2018-09-12T15:02:58.457Z,32.00
2018-09-12T15:05:26.077Z,31.80
2018-09-12T15:07:53.643Z,31.70
2018-09-12T15:10:20.827Z,31.60
2018-09-12T15:12:54.808Z,31.40
2018-09-12T15:15:21.966Z,31.40
2018-09-12T15:17:49.132Z,31.30
2018-09-12T15:20:16.393Z,31.30
2018-09-12T15:22:43.918Z,31.40
2018-09-12T15:25:11.372Z,31.40
2018-09-12T15:27:38.556Z,31.40
2018-09-12T15:30:05.962Z,31.30
2018-09-12T15:32:33.183Z,31.00
2018-09-12T15:35:00.315Z,30.90
2018-09-12T15:37:27.497Z,30.80
2018-09-12T15:39:54.656Z,30.80
2018-09-12T15:42:21.939Z,30.90
2018-09-12T15:44:49.144Z,30.70
2018-09-12T15:47:16.374Z,30.70
2018-09-12T15:49:43.503Z,30.60
2018-09-12T15:52:10.677Z,30.30
2018-09-12T15:54:37.822Z,30.30
2018-09-12T15:57:04.996Z,30.30
2018-09-12T15:59:32.157Z,30.20
2018-09-12T16:01:59.544Z,30.10
2018-09-12T16:04:26.910Z,30.00
2018-09-12T16:06:54.087Z,29.90
2018-09-12T16:09:21.264Z,29.80
2018-09-12T16:11:48.661Z,29.70
2018-09-12T16:14:15.824Z,29.60
2018-09-12T16:16:43.183Z,29.50
2018-09-12T16:19:10.341Z,29.60
2018-09-12T16:21:37.500Z,29.60
2018-09-12T16:24:04.684Z,29.50
2018-09-12T16:26:32.072Z,29.60
2018-09-12T16:28:59.287Z,29.40
2018-09-12T16:31:26.616Z,29.60
2018-09-12T16:34:00.641Z,29.50
2018-09-12T16:36:28.084Z,29.40
2018-09-12T16:38:55.502Z,29.30
2018-09-12T16:41:22.865Z,29.20
2018-09-12T16:43:50.032Z,29.20
2018-09-12T16:46:17.199Z,29.20
2018-09-12T16:48:44.367Z,29.20
2018-09-12T16:51:11.523Z,29.10
2018-09-12T16:53:38.696Z,29.00
2018-09-12T16:56:05.931Z,28.90
2018-09-12T16:58:33.159Z,28.90
2018-09-12T17:01:00.322Z,28.90
2018-09-12T17:03:27.483Z,28.80
2018-09-12T17:05:54.700Z,28.60
2018-09-12T17:08:21.896Z,28.30
2018-09-12T17:10:49.046Z,28.30
2018-09-12T17:13:16.228Z,28.10
2018-09-12T17:15:43.538Z,28.00
2018-09-12T17:18:10.751Z,27.90
2018-09-12T17:20:37.928Z,27.80
2018-09-12T17:23:05.124Z,27.70
2018-09-12T17:25:32.312Z,27.60
2018-09-12T17:27:59.724Z,27.60
2018-09-12T17:30:26.884Z,27.60
2018-09-12T17:32:54.047Z,27.60
2018-09-12T17:35:21.205Z,27.40
2018-09-12T17:37:48.471Z,27.30
2018-09-12T17:43:18.823Z,27.10
2018-09-12T17:45:46.021Z,27.00
2018-09-12T17:48:13.308Z,26.90
2018-09-12T17:50:40.525Z,26.90
2018-09-12T17:53:07.809Z,26.80
2018-09-12T17:55:35.067Z,26.90
2018-09-12T17:58:02.213Z,27.00
2018-09-12T18:00:29.581Z,26.90
2018-09-12T18:02:56.829Z,26.90
2018-09-12T18:05:24.009Z,26.90
2018-09-12T18:07:51.173Z,26.90
2018-09-12T18:10:18.375Z,26.90
2018-09-12T18:12:45.560Z,26.90
2018-09-12T18:15:12.756Z,26.80
2018-09-12T18:17:40.118Z,26.70
2018-09-12T18:20:07.200Z,26.50
2018-09-12T18:22:34.599Z,26.40
2018-09-12T18:25:01.787Z,26.20
2018-09-12T18:27:29.029Z,26.10
2018-09-12T18:29:56.273Z,26.00
2018-09-12T18:32:23.441Z,25.90
2018-09-12T18:34:50.631Z,25.90
2018-09-12T18:37:24.616Z,26.00
2018-09-12T18:39:51.788Z,26.00
2018-09-12T18:42:18.945Z,26.00
2018-09-12T18:44:46.100Z,26.10
2018-09-12T18:47:13.283Z,26.00
2018-09-12T18:49:47.230Z,26.10
2018-09-12T18:52:14.419Z,26.20
2018-09-12T18:54:41.576Z,26.30
2018-09-12T18:57:08.849Z,26.20
2018-09-12T18:59:36.095Z,26.10
2018-09-12T19:02:03.296Z,26.00
2018-09-12T19:04:30.468Z,25.90
2018-09-12T19:06:57.685Z,25.80
2018-09-12T19:09:31.576Z,25.70
2018-09-12T19:11:58.735Z,25.80
2018-09-12T19:14:25.917Z,25.80
2018-09-12T19:16:53.116Z,25.90
2018-09-12T19:19:20.280Z,25.90
2018-09-12T19:21:48.248Z,25.90
2018-09-12T19:24:15.436Z,25.90
2018-09-12T19:26:42.600Z,25.90
2018-09-12T19:29:09.770Z,25.90
2018-09-12T19:31:37.079Z,26.00
2018-09-12T19:34:04.232Z,26.00
2018-09-12T19:36:31.392Z,25.90
2018-09-12T19:38:58.568Z,25.80
2018-09-12T19:41:25.733Z,25.90
2018-09-12T19:43:52.896Z,25.80
2018-09-12T19:46:20.061Z,25.70
2018-09-12T19:48:47.285Z,25.60
2018-09-12T19:51:15.573Z,25.40
2018-09-12T19:53:43.025Z,25.20
2018-09-12T19:56:10.905Z,25.00
2018-09-12T19:58:38.063Z,25.00
2018-09-12T20:01:05.330Z,24.70
2018-09-12T20:03:32.498Z,24.60
2018-09-12T20:05:59.677Z,24.50
2018-09-12T20:08:26.974Z,24.40
2018-09-12T20:10:54.236Z,24.30
2018-09-12T20:13:21.400Z,24.30
2018-09-12T20:15:48.647Z,24.20
2018-09-12T20:18:15.807Z,24.10
2018-09-12T20:20:43.039Z,24.00
2018-09-12T20:23:10.205Z,23.90
2018-09-12T20:25:37.454Z,23.90
2018-09-12T20:28:04.717Z,23.90
2018-09-12T20:30:31.884Z,23.80
2018-09-12T20:32:59.172Z,23.70
2018-09-12T20:35:26.430Z,23.70
2018-09-12T20:37:53.604Z,23.70
2018-09-12T20:40:20.769Z,23.70
2018-09-12T20:42:47.934Z,23.60
2018-09-12T20:45:15.114Z,23.50
2018-09-12T20:47:42.286Z,23.40
2018-09-12T20:50:09.491Z,23.30
2018-09-12T20:52:36.648Z,23.30
2018-09-12T20:55:03.863Z,23.20
2018-09-12T20:57:31.076Z,23.20
2018-09-12T20:59:58.285Z,23.10
2018-09-12T21:02:25.462Z,23.20
2018-09-12T21:04:52.633Z,23.10
2018-09-12T21:07:19.812Z,23.00
2018-09-12T21:09:46.986Z,23.00
2018-09-12T21:12:14.164Z,22.90
2018-09-12T21:14:41.461Z,22.90
2018-09-12T21:17:08.612Z,22.70
2018-09-12T21:19:35.784Z,22.60
2018-09-12T21:22:02.960Z,22.60
2018-09-12T21:24:30.446Z,22.60
2018-09-12T21:26:57.636Z,22.50
2018-09-12T21:29:24.809Z,22.50
2018-09-12T21:31:51.977Z,22.30
2018-09-12T21:34:19.152Z,22.20
2018-09-12T21:36:46.326Z,22.20
2018-09-12T21:39:13.497Z,22.30
2018-09-12T21:41:40.657Z,22.30
2018-09-12T21:44:07.811Z,22.30
2018-09-12T21:46:34.967Z,22.30
2018-09-12T21:49:02.121Z,22.20
2018-09-12T21:51:29.512Z,22.20
2018-09-12T21:53:56.668Z,22.20
2018-09-12T21:56:23.844Z,22.00
2018-09-12T21:58:51.035Z,21.90
2018-09-12T22:01:24.056Z,21.90
2018-09-12T22:03:52.047Z,21.90
2018-09-12T22:06:19.584Z,21.90
2018-09-12T22:08:46.758Z,21.90
2018-09-12T22:11:13.988Z,21.90
2018-09-12T22:13:41.187Z,21.80
2018-09-12T22:16:08.351Z,21.70
2018-09-12T22:18:35.517Z,21.60
2018-09-12T22:21:02.690Z,21.60
2018-09-12T22:23:29.868Z,21.60
2018-09-12T22:25:57.051Z,21.50
2018-09-12T22:28:24.245Z,21.50
2018-09-12T22:30:51.436Z,21.50
2018-09-12T22:33:25.297Z,21.50
2018-09-12T22:38:26.593Z,21.40
2018-09-12T22:40:53.888Z,21.50
2018-09-12T22:43:21.069Z,21.50
2018-09-12T22:45:48.327Z,21.50
2018-09-12T22:48:15.489Z,21.40
2018-09-12T22:50:42.665Z,21.40
2018-09-12T22:53:09.816Z,21.40
2018-09-12T22:55:37.021Z,21.30
2018-09-12T22:58:04.676Z,21.30
2018-09-12T23:00:31.885Z,21.30
2018-09-12T23:02:59.057Z,21.20
2018-09-12T23:05:26.224Z,21.20
2018-09-12T23:07:53.420Z,21.10
2018-09-12T23:10:20.573Z,21.10
2018-09-12T23:12:47.749Z,21.10
2018-09-12T23:15:14.914Z,21.10
2018-09-12T23:17:42.085Z,21.00
2018-09-12T23:20:09.241Z,21.00
2018-09-12T23:22:36.408Z,21.00
2018-09-12T23:25:03.589Z,20.80
2018-09-12T23:27:30.769Z,20.90
2018-09-12T23:29:57.925Z,20.80
2018-09-12T23:32:25.104Z,20.70
2018-09-12T23:34:52.264Z,20.70
2018-09-12T23:37:19.428Z,20.70
2018-09-12T23:39:46.601Z,20.60
2018-09-12T23:42:20.522Z,20.60
2018-09-12T23:44:47.717Z,20.50
2018-09-12T23:47:14.903Z,20.40
2018-09-12T23:49:42.048Z,20.40
2018-09-12T23:52:09.256Z,20.40
2018-09-12T23:54:36.454Z,20.30
2018-09-12T23:57:03.647Z,20.30
2018-09-12T23:59:30.801Z,20.30
